Time;durP1;ratioP1;P1;durP2;ratioP2;P2;SDS_P1;SDS_P2;PMS_P1;PMS_P2;Temp;Humidity;BMP_temperature;BMP_pressure;BME280_temperature;BME280_humidity;BME280_pressure;Samples;Min_cycle;Max_cycle;Signal;HPM_P1;HPM_P2
2023/03/02 00:02:00;;;;;;;195.10;47.70;;;;;;;-4.92;100.00;100317.53;104602;1300;22789;-30
2023/03/02 00:04:30;;;;;;;190.30;63.60;;;;;;;-4.84;100.00;100316.13;104317;1304;23031;-35
2023/03/02 00:06:59;;;;;;;195.10;63.30;;;;;;;-4.79;100.00;100318.50;104490;1302;22759;-31
2023/03/02 00:09:24;;;;;;;142.00;45.30;;;;;;;-4.80;100.00;100320.63;104682;1302;22663;-35
2023/03/02 00:11:50;;;;;;;164.80;53.50;;;;;;;-4.78;100.00;100317.91;104516;1301;23979;-34
2023/03/02 00:14:16;;;;;;;237.10;66.50;;;;;;;-4.79;100.00;100316.02;104458;1294;22950;-30
2023/03/02 00:16:42;;;;;;;202.40;61.80;;;;;;;-4.80;100.00;100318.52;104605;1302;22832;-30
2023/03/02 00:19:07;;;;;;;190.10;59.30;;;;;;;-4.85;100.00;100317.38;104587;1298;22829;-30
2023/03/02 00:21:33;;;;;;;188.60;56.10;;;;;;;-4.88;100.00;100313.70;104542;1304;22642;-30
2023/03/02 00:23:59;;;;;;;157.60;47.30;;;;;;;-4.81;100.00;100314.20;104566;1292;22783;-33
2023/03/02 00:26:25;;;;;;;159.20;52.30;;;;;;;-4.69;100.00;100313.80;104575;1295;23125;-34
2023/03/02 00:28:51;;;;;;;196.90;61.00;;;;;;;-4.64;100.00;100309.70;104586;1304;23047;-29
2023/03/02 00:31:17;;;;;;;244.10;74.20;;;;;;;-4.62;100.00;100312.44;104545;1304;22775;-34
2023/03/02 00:33:42;;;;;;;180.80;53.60;;;;;;;-4.74;100.00;100314.05;104569;1302;24344;-34
2023/03/02 00:36:16;;;;;;;171.40;49.30;;;;;;;-4.79;100.00;100313.94;104702;1304;25397;-34
2023/03/02 00:38:42;;;;;;;146.30;44.40;;;;;;;-4.83;100.00;100310.15;104575;1294;25304;-29
2023/03/02 00:41:10;;;;;;;193.90;60.20;;;;;;;-4.90;100.00;100306.11;104541;1293;24391;-34
2023/03/02 00:43:35;;;;;;;166.10;51.30;;;;;;;-5.02;100.00;100300.39;104663;1294;22816;-34
2023/03/02 00:46:09;;;;;;;179.90;50.80;;;;;;;-5.12;100.00;100300.77;104483;1294;22689;-30
2023/03/02 00:48:35;;;;;;;158.70;51.10;;;;;;;-5.16;100.00;100300.56;104580;1297;22568;-30
2023/03/02 00:51:00;;;;;;;208.80;56.20;;;;;;;-5.10;100.00;100298.00;104517;1304;24804;-30
2023/03/02 00:53:26;;;;;;;141.70;41.70;;;;;;;-5.08;100.00;100296.85;104568;1292;22826;-34
2023/03/02 00:55:55;;;;;;;166.00;54.30;;;;;;;-5.08;100.00;100296.52;104424;1303;26633;-29
2023/03/02 00:58:21;;;;;;;209.00;58.10;;;;;;;-5.09;100.00;100290.45;104565;1304;22840;-38
2023/03/02 01:00:48;;;;;;;185.30;61.20;;;;;;;-5.09;100.00;100292.71;104470;1304;22858;-30
2023/03/02 01:03:15;;;;;;;144.50;49.70;;;;;;;-5.10;100.00;100296.29;104570;1298;22639;-31
2023/03/02 01:05:41;;;;;;;172.00;53.00;;;;;;;-5.14;100.00;100290.68;104472;1304;22796;-29
2023/03/02 01:08:06;;;;;;;192.60;53.60;;;;;;;-5.17;100.00;100289.08;104479;1294;22686;-30
2023/03/02 01:10:32;;;;;;;128.10;41.30;;;;;;;-5.19;100.00;100283.59;104471;1301;24267;-35
2023/03/02 01:12:58;;;;;;;116.50;39.10;;;;;;;-5.18;100.00;100277.11;104613;1296;22673;-30
2023/03/02 01:15:24;;;;;;;130.90;40.20;;;;;;;-5.15;100.00;100276.80;104488;1292;23176;-34
2023/03/02 01:17:50;;;;;;;115.00;38.50;;;;;;;-5.11;100.00;100274.34;104598;1304;22557;-30
2023/03/02 01:20:16;;;;;;;123.70;39.70;;;;;;;-5.11;100.00;100271.89;104559;1294;23032;-34
2023/03/02 01:22:43;;;;;;;129.80;41.60;;;;;;;-5.12;100.00;100268.08;104595;1294;23296;-29
2023/03/02 01:25:09;;;;;;;116.50;39.10;;;;;;;-5.15;100.00;100265.08;104512;1294;23041;-33
2023/03/02 01:27:35;;;;;;;123.20;41.20;;;;;;;-5.10;100.00;100259.41;104513;1304;24430;-31
2023/03/02 01:30:01;;;;;;;100.70;33.60;;;;;;;-5.02;100.00;100260.42;104375;1304;22666;-36
2023/03/02 01:32:27;;;;;;;110.00;39.00;;;;;;;-128.00;-1.00;-1.00;100992;1304;1004447;-34
2023/03/02 01:34:53;;;;;;;154.40;39.70;;;;;;;-128.00;-1.00;-1.00;100930;1304;1004460;-34
2023/03/02 01:37:19;;;;;;;181.20;59.00;;;;;;;-128.00;-1.00;-1.00;100933;1304;1004601;-29
2023/03/02 01:39:46;;;;;;;235.50;68.70;;;;;;;-128.00;-1.00;-1.00;100944;1304;1005091;-35
2023/03/02 01:42:11;;;;;;;241.80;73.30;;;;;;;-128.00;-1.00;-1.00;101034;1304;1005031;-33
2023/03/02 01:44:55;;;;;;;243.10;71.30;;;;;;;-128.00;-1.00;-1.00;100898;1304;1004528;-30
2023/03/02 01:47:29;;;;;;;257.80;76.30;;;;;;;-128.00;-1.00;-1.00;101083;1304;1004365;-29
2023/03/02 01:49:57;;;;;;;158.80;48.30;;;;;;;-128.00;-1.00;-1.00;100982;1304;1004965;-27
2023/03/02 01:52:23;;;;;;;215.30;63.80;;;;;;;-128.00;-1.00;-1.00;100974;1301;1003529;-28
2023/03/02 01:54:50;;;;;;;592.50;194.10;;;;;;;-128.00;-1.00;-1.00;100942;1304;1004321;-30
2023/03/02 01:57:20;;;;;;;372.10;118.90;;;;;;;-128.00;-1.00;-1.00;101023;1304;1004406;-30
2023/03/02 01:59:46;;;;;;;363.10;96.20;;;;;;;-128.00;-1.00;-1.00;100882;1301;1004771;-28
2023/03/02 02:02:12;;;;;;;190.80;66.60;;;;;;;-128.00;-1.00;-1.00;101006;1304;1004509;-33
2023/03/02 02:04:39;;;;;;;174.80;51.30;;;;;;;-128.00;-1.00;-1.00;101042;1304;1005340;-31
2023/03/02 02:07:06;;;;;;;188.90;51.20;;;;;;;-128.00;-1.00;-1.00;100998;1304;1004753;-33
2023/03/02 02:09:35;;;;;;;201.60;60.50;;;;;;;-128.00;-1.00;-1.00;101024;1302;1003740;-30
2023/03/02 02:12:01;;;;;;;269.60;76.80;;;;;;;-128.00;-1.00;-1.00;101010;1304;1003976;-33
2023/03/02 02:14:27;;;;;;;284.60;92.70;;;;;;;-128.00;-1.00;-1.00;101016;1304;1004184;-34
2023/03/02 02:16:53;;;;;;;283.00;90.30;;;;;;;-128.00;-1.00;-1.00;100973;1304;1004941;-34
2023/03/02 02:19:37;;;;;;;218.20;77.90;;;;;;;-128.00;-1.00;-1.00;101019;1304;1004925;-32
2023/03/02 02:22:03;;;;;;;;;;;;;;;-128.00;-1.00;-1.00;101029;1304;1004533;-34
2023/03/02 02:24:33;;;;;;;155.60;46.50;;;;;;;-128.00;-1.00;-1.00;100980;1304;1004686;-34
2023/03/02 02:26:59;;;;;;;141.40;49.10;;;;;;;-128.00;-1.00;-1.00;100928;1304;1004411;-29
2023/03/02 02:29:33;;;;;;;273.60;88.70;;;;;;;-128.00;-1.00;-1.00;101008;1304;1004186;-29
2023/03/02 02:32:01;;;;;;;221.10;74.20;;;;;;;-128.00;-1.00;-1.00;100911;1304;1003901;-29
2023/03/02 02:34:31;;;;;;;268.60;80.70;;;;;;;-128.00;-1.00;-1.00;100893;1304;1005106;-33
2023/03/02 02:37:02;;;;;;;212.30;65.00;;;;;;;-128.00;-1.00;-1.00;101007;1304;1005101;-34
2023/03/02 02:39:30;;;;;;;204.70;65.80;;;;;;;-128.00;-1.00;-1.00;100776;1305;1004552;-34
2023/03/02 02:41:58;;;;;;;219.20;65.30;;;;;;;-128.00;-1.00;-1.00;101068;1304;1004443;-30
2023/03/02 02:44:24;;;;;;;150.80;54.90;;;;;;;-128.00;-1.00;-1.00;100988;1304;1004415;-30
2023/03/02 02:46:49;;;;;;;199.00;64.80;;;;;;;-128.00;-1.00;-1.00;101077;1298;1004396;-30
2023/03/02 02:49:30;;;;;;;204.10;70.30;;;;;;;-128.00;-1.00;-1.00;100982;1304;1004630;-36
2023/03/02 02:51:56;;;;;;;197.60;59.50;;;;;;;-128.00;-1.00;-1.00;101067;1304;1004776;-35
2023/03/02 02:54:22;;;;;;;167.30;59.30;;;;;;;-128.00;-1.00;-1.00;100983;1304;1004364;-29
2023/03/02 02:56:48;;;;;;;143.20;45.50;;;;;;;-128.00;-1.00;-1.00;100940;1304;1004073;-35
2023/03/02 02:59:16;;;;;;;189.10;65.50;;;;;;;-128.00;-1.00;-1.00;100913;1304;1004501;-33
2023/03/02 03:01:42;;;;;;;218.50;67.40;;;;;;;-128.00;-1.00;-1.00;101068;1304;1004166;-34
2023/03/02 03:04:09;;;;;;;239.90;81.50;;;;;;;-128.00;-1.00;-1.00;100784;1304;1003830;-34
2023/03/02 03:09:08;;;;;;;188.60;59.80;;;;;;;-128.00;-1.00;-1.00;100983;1304;1004683;-29
2023/03/02 03:11:35;;;;;;;111.90;38.20;;;;;;;-128.00;-1.00;-1.00;100966;1304;1004293;-29
2023/03/02 03:14:04;;;;;;;175.90;51.80;;;;;;;-128.00;-1.00;-1.00;100957;1304;1004533;-33
2023/03/02 03:16:32;;;;;;;137.00;45.90;;;;;;;-128.00;-1.00;-1.00;100950;1304;1004180;-29
2023/03/02 03:19:00;;;;;;;103.90;33.10;;;;;;;-128.00;-1.00;-1.00;100986;1304;1004839;-35
2023/03/02 03:21:26;;;;;;;132.10;41.70;;;;;;;-128.00;-1.00;-1.00;100766;1303;1003281;-32
2023/03/02 03:23:52;;;;;;;124.60;43.10;;;;;;;-128.00;-1.00;-1.00;101048;1304;1004896;-34
2023/03/02 03:26:19;;;;;;;156.00;44.60;;;;;;;-128.00;-1.00;-1.00;100974;1304;1004536;-30
2023/03/02 03:28:45;;;;;;;137.90;46.70;;;;;;;-128.00;-1.00;-1.00;101040;1304;1004345;-33
2023/03/02 03:31:11;;;;;;;136.30;43.70;;;;;;;-128.00;-1.00;-1.00;100793;1304;1004918;-28
2023/03/02 03:33:36;;;;;;;122.40;39.10;;;;;;;-128.00;-1.00;-1.00;100818;1304;1004452;-33
2023/03/02 03:36:02;;;;;;;110.30;37.90;;;;;;;-128.00;-1.00;-1.00;100938;1304;1004668;-29
2023/03/02 03:38:28;;;;;;;143.60;44.10;;;;;;;-128.00;-1.00;-1.00;100815;1304;1004521;-31
2023/03/02 03:40:54;;;;;;;147.80;42.70;;;;;;;-128.00;-1.00;-1.00;101017;1304;1004679;-29
2023/03/02 03:43:20;;;;;;;95.00;33.90;;;;;;;-128.00;-1.00;-1.00;100963;1304;1003974;-33
2023/03/02 03:45:46;;;;;;;105.90;36.10;;;;;;;-128.00;-1.00;-1.00;101002;1304;1003934;-33
2023/03/02 03:48:12;;;;;;;114.00;37.10;;;;;;;-128.00;-1.00;-1.00;100961;1304;1003671;-36
2023/03/02 03:50:38;;;;;;;106.10;34.70;;;;;;;-128.00;-1.00;-1.00;101020;1304;1006355;-29
2023/03/02 03:53:04;;;;;;;130.00;45.40;;;;;;;-128.00;-1.00;-1.00;100965;1304;1004465;-34
2023/03/02 03:55:30;;;;;;;146.10;47.60;;;;;;;-128.00;-1.00;-1.00;100963;1304;1004938;-29
2023/03/02 03:57:56;;;;;;;142.90;59.30;;;;;;;-128.00;-1.00;-1.00;100997;1304;1005038;-32
2023/03/02 04:00:23;;;;;;;128.10;51.70;;;;;;;-128.00;-1.00;-1.00;101013;1304;1004722;-29
2023/03/02 04:02:49;;;;;;;109.70;41.30;;;;;;;-128.00;-1.00;-1.00;100914;1301;1004257;-34
2023/03/02 04:05:16;;;;;;;87.60;31.70;;;;;;;-128.00;-1.00;-1.00;100956;1304;1003716;-29
2023/03/02 04:07:42;;;;;;;94.50;30.20;;;;;;;-128.00;-1.00;-1.00;100930;1304;1004626;-29
2023/03/02 04:10:09;;;;;;;74.50;23.90;;;;;;;-128.00;-1.00;-1.00;100993;1304;1004625;-34
2023/03/02 04:12:37;;;;;;;66.10;24.20;;;;;;;-128.00;-1.00;-1.00;100894;1304;1004282;-29
2023/03/02 04:15:04;;;;;;;82.80;27.70;;;;;;;-128.00;-1.00;-1.00;101023;1304;1004496;-30
2023/03/02 04:17:30;;;;;;;85.60;30.20;;;;;;;-128.00;-1.00;-1.00;100970;1304;1004710;-34
2023/03/02 04:19:56;;;;;;;94.20;32.50;;;;;;;-128.00;-1.00;-1.00;100958;1304;1004655;-34
2023/03/02 04:22:22;;;;;;;162.30;55.40;;;;;;;-128.00;-1.00;-1.00;100967;1304;1004061;-30
2023/03/02 04:24:49;;;;;;;159.70;54.00;;;;;;;-128.00;-1.00;-1.00;101051;1304;1005067;-29
2023/03/02 04:27:15;;;;;;;159.30;51.60;;;;;;;-128.00;-1.00;-1.00;100947;1304;1004338;-30
2023/03/02 04:29:42;;;;;;;151.10;49.00;;;;;;;-128.00;-1.00;-1.00;100985;1304;1004490;-34
2023/03/02 04:32:08;;;;;;;157.80;49.30;;;;;;;-128.00;-1.00;-1.00;100911;1304;1004297;-30
2023/03/02 04:34:34;;;;;;;101.50;32.20;;;;;;;-128.00;-1.00;-1.00;101058;1304;1004633;-29
2023/03/02 04:37:00;;;;;;;102.80;36.00;;;;;;;-128.00;-1.00;-1.00;100975;1304;1004581;-33
2023/03/02 05:15:38;;;;;;;84.70;31.10;;;;;;;-6.51;100.00;100184.99;104484;1304;557364;-33
2023/03/02 05:18:06;;;;;;;101.70;31.80;;;;;;;-6.37;100.00;100185.80;104228;1303;510100;-34
2023/03/02 05:20:33;;;;;;;84.20;30.00;;;;;;;-6.30;100.00;100184.95;104643;1302;24463;-33
2023/03/02 05:23:04;;;;;;;98.80;33.90;;;;;;;-6.31;100.00;100187.77;104451;1298;22957;-29
2023/03/02 05:25:30;;;;;;;100.40;31.50;;;;;;;-6.31;100.00;100186.24;104595;1291;23965;-33
2023/03/02 05:27:56;;;;;;;76.00;27.40;;;;;;;-6.32;100.00;100186.43;104659;1293;22637;-34
2023/03/02 05:30:23;;;;;;;89.90;33.10;;;;;;;-6.32;100.00;100186.95;104669;1292;22660;-29
2023/03/02 05:32:50;;;;;;;112.80;36.60;;;;;;;-6.33;100.00;100187.02;104859;1304;22687;-30
2023/03/02 05:35:16;;;;;;;130.60;44.80;;;;;;;-6.39;100.00;100182.05;104674;1293;23149;-29
2023/03/02 05:37:43;;;;;;;236.60;83.30;;;;;;;-6.45;100.00;100185.13;104682;1292;22922;-27
2023/03/02 05:40:14;;;;;;;192.80;67.10;;;;;;;-6.47;100.00;100190.46;104776;1292;22567;-30
2023/03/02 05:42:41;;;;;;;146.10;48.30;;;;;;;-6.47;100.00;100191.48;104754;1304;22785;-30
2023/03/02 05:45:07;;;;;;;133.20;43.90;;;;;;;-6.48;100.00;100197.61;104687;1292;22663;-32
2023/03/02 05:47:33;;;;;;;313.00;100.30;;;;;;;-6.48;100.00;100200.24;104653;1292;22801;-28
2023/03/02 05:49:59;;;;;;;159.60;59.40;;;;;;;-6.45;100.00;100203.75;104791;1289;22559;-27
2023/03/02 05:52:25;;;;;;;107.50;42.70;;;;;;;-6.37;100.00;100202.88;104723;1292;22677;-33
2023/03/02 05:54:51;;;;;;;140.60;48.00;;;;;;;-6.36;100.00;100197.25;104725;1292;22663;-28
2023/03/02 05:57:17;;;;;;;129.70;42.70;;;;;;;-6.31;100.00;100199.80;104729;1292;22663;-30
2023/03/02 06:00:04;;;;;;;91.90;30.50;;;;;;;-6.24;100.00;100199.48;104661;1292;22656;-31
2023/03/02 06:02:31;;;;;;;110.80;39.90;;;;;;;-6.15;100.00;100202.54;104631;1292;24334;-31
2023/03/02 06:04:57;;;;;;;79.50;29.30;;;;;;;-6.02;100.00;100200.39;104554;1292;23034;-30
2023/03/02 06:07:22;;;;;;;81.10;30.30;;;;;;;-5.90;100.00;100202.09;104702;1304;23051;-29
2023/03/02 06:09:49;;;;;;;99.60;32.60;;;;;;;-5.84;100.00;100205.08;104744;1289;22549;-33
2023/03/02 06:12:16;;;;;;;121.50;37.30;;;;;;;-5.79;100.00;100206.59;104752;1304;24313;-30
2023/03/02 06:14:42;;;;;;;131.50;44.30;;;;;;;-5.74;100.00;100204.80;104722;1304;22593;-31
2023/03/02 06:17:09;;;;;;;112.90;40.40;;;;;;;-5.71;100.00;100204.09;104772;1289;22969;-27
2023/03/02 06:19:35;;;;;;;102.50;36.10;;;;;;;-5.67;100.00;100206.58;104783;1295;22660;-33
2023/03/02 06:22:01;;;;;;;91.90;34.20;;;;;;;-5.66;100.00;100212.08;104691;1292;22953;-32
2023/03/02 06:24:27;;;;;;;98.20;31.70;;;;;;;-5.62;100.00;100214.48;104532;1295;22665;-29
2023/03/02 06:26:53;;;;;;;118.80;39.30;;;;;;;-5.51;100.00;100212.94;104622;1304;23037;-32
2023/03/02 06:29:20;;;;;;;118.70;41.10;;;;;;;-5.40;100.00;100217.10;104806;1289;22557;-33
2023/03/02 06:31:46;;;;;;;116.10;43.70;;;;;;;-5.37;100.00;100217.80;104520;1304;22813;-33
2023/03/02 06:34:12;;;;;;;87.20;33.10;;;;;;;-5.29;100.00;100220.02;104726;1292;23031;-29
2023/03/02 06:36:38;;;;;;;75.80;28.50;;;;;;;-5.22;100.00;100220.58;104697;1304;23108;-33
2023/03/02 06:39:05;;;;;;;105.00;35.90;;;;;;;-5.11;100.00;100220.74;104774;1292;25488;-34
2023/03/02 06:41:32;;;;;;;89.60;32.40;;;;;;;-5.03;100.00;100220.46;104351;1304;22789;-34
2023/03/02 06:43:59;;;;;;;77.70;28.10;;;;;;;-4.94;100.00;100221.63;104602;1292;24235;-30
2023/03/02 06:46:25;;;;;;;87.00;28.90;;;;;;;-4.77;100.00;100223.17;104694;1288;24307;-29
2023/03/02 06:48:51;;;;;;;84.50;33.00;;;;;;;-4.60;100.00;100221.08;104460;1301;22664;-30
2023/03/02 06:51:16;;;;;;;115.80;41.20;;;;;;;-4.47;100.00;100217.73;104633;1292;22716;-35
2023/03/02 06:53:43;;;;;;;85.00;34.30;;;;;;;-4.46;100.00;100215.27;104640;1304;23091;-30
2023/03/02 06:56:08;;;;;;;188.20;66.40;;;;;;;-4.44;100.00;100214.65;104451;1288;23174;-30
2023/03/02 06:58:35;;;;;;;118.80;44.70;;;;;;;-4.30;100.00;100215.83;104658;1292;22551;-36
2023/03/02 07:01:01;;;;;;;112.90;36.10;;;;;;;-4.12;100.00;100212.56;104680;1304;22798;-35
2023/03/02 07:03:27;;;;;;;113.10;40.80;;;;;;;-3.97;100.00;100212.63;104773;1285;22602;-30
2023/03/02 07:05:53;;;;;;;123.70;43.90;;;;;;;-3.78;100.00;100208.94;104718;1293;22910;-34
2023/03/02 07:08:19;;;;;;;136.20;51.40;;;;;;;-3.63;100.00;100214.76;104752;1304;23154;-30
2023/03/02 07:10:45;;;;;;;86.80;29.10;;;;;;;-3.53;100.00;100209.11;104282;1304;23036;-37
2023/03/02 07:13:11;;;;;;;145.80;52.20;;;;;;;-3.37;100.00;100212.92;104803;1292;22675;-29
2023/03/02 07:15:39;;;;;;;186.90;65.40;;;;;;;-3.21;100.00;100210.61;104484;1285;25307;-30
2023/03/02 07:18:10;;;;;;;182.30;61.90;;;;;;;-2.98;100.00;100212.44;104721;1301;22800;-34
2023/03/02 07:20:37;;;;;;;175.30;61.70;;;;;;;-2.74;100.00;100211.88;104661;1292;25329;-30
2023/03/02 07:23:03;;;;;;;205.30;67.90;;;;;;;-2.48;100.00;100208.88;104723;1304;22869;-34
2023/03/02 07:25:29;;;;;;;181.80;65.80;;;;;;;-2.18;100.00;100209.69;104755;1304;22613;-30
2023/03/02 07:27:55;;;;;;;168.60;62.30;;;;;;;-1.91;100.00;100209.55;104594;1295;22553;-29
2023/03/02 07:30:21;;;;;;;166.50;59.90;;;;;;;-1.59;100.00;100202.96;104715;1292;22826;-34
2023/03/02 07:32:47;;;;;;;114.40;42.60;;;;;;;-1.29;100.00;100202.04;104732;1292;23154;-34
2023/03/02 07:35:13;;;;;;;135.70;42.60;;;;;;;-0.96;100.00;100197.75;104487;1304;23155;-32
2023/03/02 07:37:39;;;;;;;127.00;45.00;;;;;;;-0.69;100.00;100192.20;104831;1295;24381;-33
2023/03/02 07:40:06;;;;;;;130.20;44.90;;;;;;;-0.34;100.00;100188.86;104816;1304;24436;-34
2023/03/02 07:42:32;;;;;;;82.90;33.50;;;;;;;-0.07;100.00;100183.83;104679;1288;22514;-34
2023/03/02 07:44:58;;;;;;;129.20;50.00;;;;;;;0.29;100.00;100182.92;104659;1288;24238;-35
2023/03/02 07:47:24;;;;;;;88.40;40.70;;;;;;;0.58;100.00;100183.83;104705;1289;22997;-30
2023/03/02 07:49:49;;;;;;;80.50;37.80;;;;;;;0.85;100.00;100188.19;104644;1304;24403;-35
2023/03/02 07:52:15;;;;;;;94.70;39.60;;;;;;;1.18;100.00;100184.61;104701;1304;22672;-34
2023/03/02 07:54:41;;;;;;;116.50;40.80;;;;;;;1.54;100.00;100179.03;104792;1292;23145;-35
2023/03/02 07:57:07;;;;;;;92.10;37.20;;;;;;;1.67;99.68;100178.52;104708;1304;24381;-32
2023/03/02 07:59:33;;;;;;;67.70;31.50;;;;;;;1.80;98.70;100174.14;104847;1292;24320;-34
2023/03/02 08:01:59;;;;;;;72.10;31.80;;;;;;;2.03;100.00;100175.16;104865;1293;22587;-33
2023/03/02 08:04:25;;;;;;;59.70;28.10;;;;;;;2.10;100.00;100176.70;104764;1289;22656;-30
2023/03/02 08:06:50;;;;;;;72.00;31.90;;;;;;;2.12;99.86;100176.38;104621;1289;22660;-31
2023/03/02 08:09:16;;;;;;;87.60;35.00;;;;;;;2.39;100.00;100179.08;104758;1292;22718;-37
2023/03/02 08:11:43;;;;;;;66.00;27.70;;;;;;;2.60;99.35;100180.21;104681;1292;22809;-31
2023/03/02 08:14:09;;;;;;;68.20;31.90;;;;;;;2.86;97.18;100183.33;104380;1291;23070;-32
2023/03/02 08:16:35;;;;;;;68.30;30.40;;;;;;;3.23;99.52;100179.38;104744;1304;22583;-31
2023/03/02 08:19:01;;;;;;;86.40;39.40;;;;;;;3.58;95.28;100177.27;104728;1292;24783;-35
2023/03/02 08:21:27;;;;;;;88.60;39.30;;;;;;;3.80;91.77;100173.40;104725;1289;23041;-35
2023/03/02 08:23:53;;;;;;;88.10;38.60;;;;;;;4.14;98.42;100171.64;104739;1292;23035;-33
2023/03/02 08:26:19;;;;;;;99.60;42.30;;;;;;;4.47;95.26;100177.77;104700;1292;22666;-35
2023/03/02 08:28:45;;;;;;;82.20;33.70;;;;;;;4.84;95.91;100181.54;104643;1304;22660;-35
2023/03/02 08:31:11;;;;;;;105.60;45.80;;;;;;;5.14;95.35;100181.01;104843;1292;23040;-32
2023/03/02 08:33:37;;;;;;;108.10;44.20;;;;;;;5.46;96.56;100175.39;104833;1292;24429;-35
2023/03/02 08:36:05;;;;;;;116.80;46.50;;;;;;;5.85;92.87;100174.54;104398;1304;22679;-31
2023/03/02 08:38:31;;;;;;;114.90;50.40;;;;;;;5.98;79.05;100173.16;104765;1304;22794;-36
2023/03/02 08:40:57;;;;;;;100.40;45.00;;;;;;;5.97;76.65;100168.73;104734;1292;22654;-32
2023/03/02 08:43:23;;;;;;;97.50;42.60;;;;;;;6.23;90.98;100165.95;104707;1304;22658;-35
2023/03/02 08:45:53;;;;;;;75.90;34.40;;;;;;;6.06;92.74;100171.29;104661;1289;22546;-36
2023/03/02 08:48:20;;;;;;;127.10;57.00;;;;;;;6.10;83.34;100169.50;104720;1304;24224;-36
2023/03/02 08:51:01;;;;;;;132.80;63.20;;;;;;;6.44;81.63;100163.66;104693;1293;22813;-32
2023/03/02 08:53:28;;;;;;;111.50;47.00;;;;;;;6.80;85.01;100160.98;104676;1304;23153;-32
2023/03/02 08:55:54;;;;;;;79.20;38.30;;;;;;;7.24;88.42;100158.32;104709;1292;22553;-36
2023/03/02 08:58:20;;;;;;;92.80;43.00;;;;;;;7.46;84.82;100157.09;104417;1304;22817;-36
2023/03/02 09:00:46;;;;;;;111.60;44.60;;;;;;;7.31;81.75;100158.67;104770;1292;22898;-35
2023/03/02 09:03:12;;;;;;;94.50;44.70;;;;;;;7.40;81.73;100154.21;104905;1292;23038;-36
2023/03/02 09:05:38;;;;;;;88.40;42.00;;;;;;;7.32;78.24;100154.60;104668;1292;22668;-34
2023/03/02 09:08:04;;;;;;;78.80;37.70;;;;;;;7.10;76.43;100155.31;104617;1295;22599;-31
2023/03/02 09:10:30;;;;;;;98.40;39.50;;;;;;;7.24;77.08;100155.58;104809;1304;22897;-37
2023/03/02 09:12:55;;;;;;;102.40;43.00;;;;;;;7.25;75.66;100155.50;104539;1295;23140;-34
2023/03/02 09:15:21;;;;;;;100.80;44.10;;;;;;;7.31;75.29;100153.85;104802;1292;22591;-31
2023/03/02 09:17:47;;;;;;;106.70;46.60;;;;;;;7.67;74.83;100153.92;104811;1289;22747;-32
2023/03/02 09:20:13;;;;;;;73.70;39.00;;;;;;;7.56;73.04;100152.17;104759;1301;22935;-36
2023/03/02 09:22:39;;;;;;;104.40;49.20;;;;;;;7.78;72.74;100147.54;104596;1295;23037;-32
2023/03/02 09:25:05;;;;;;;96.80;42.70;;;;;;;7.72;70.54;100146.55;104587;1304;23037;-32
2023/03/02 09:27:31;;;;;;;63.10;33.30;;;;;;;7.79;67.69;100142.63;104797;1292;22811;-31
2023/03/02 09:29:57;;;;;;;87.10;40.40;;;;;;;8.03;67.09;100142.39;104705;1292;22785;-36
2023/03/02 09:32:22;;;;;;;106.90;45.40;;;;;;;8.16;66.02;100139.86;104721;1304;23176;-32
2023/03/02 09:34:48;;;;;;;76.50;38.30;;;;;;;8.07;65.97;100134.55;104823;1292;22797;-32
2023/03/02 09:37:14;;;;;;;102.80;46.00;;;;;;;8.32;64.66;100130.79;104866;1292;22795;-32
2023/03/02 09:39:40;;;;;;;96.60;47.00;;;;;;;8.31;63.72;100132.85;104841;1292;22744;-35
2023/03/02 09:42:18;;;;;;;105.30;49.40;;;;;;;8.25;62.61;100126.94;104698;1292;22627;-35
2023/03/02 09:44:59;;;;;;;75.70;36.10;;;;;;;8.48;62.17;100124.60;104675;1292;22556;-35
2023/03/02 09:47:55;;;;;;;66.90;35.30;;;;;;;8.13;59.50;100129.45;104800;1285;23075;-31
2023/03/02 09:50:38;;;;;;;68.50;38.00;;;;;;;8.44;61.99;100130.61;104807;1285;23302;-31
2023/03/02 09:53:20;;;;;;;71.20;35.30;;;;;;;8.77;59.71;100127.54;104743;1304;22675;-31
2023/03/02 09:55:50;;;;;;;62.40;30.40;;;;;;;8.89;58.10;100127.71;104629;1282;22550;-37
2023/03/02 09:58:17;;;;;;;62.90;32.90;;;;;;;9.44;60.33;100117.99;104704;1292;24375;-31
2023/03/02 10:00:43;;;;;;;49.50;26.90;;;;;;;9.79;58.68;100115.66;104736;1304;24260;-31
2023/03/02 10:03:17;;;;;;;56.50;30.50;;;;;;;9.71;53.29;100117.46;104668;1292;25371;-31
2023/03/02 10:05:45;;;;;;;44.50;22.20;;;;;;;9.81;53.91;100119.95;104827;1288;22641;-35
2023/03/02 10:08:13;;;;;;;41.80;23.20;;;;;;;9.97;53.73;100117.56;104564;1304;22569;-31
2023/03/02 10:10:55;;;;;;;37.40;20.30;;;;;;;9.80;51.93;100119.88;104591;1294;22799;-36
2023/03/02 10:13:36;;;;;;;41.40;21.20;;;;;;;9.63;52.61;100112.70;104761;1288;24418;-36
2023/03/02 10:16:25;;;;;;;28.20;17.30;;;;;;;10.26;53.88;100113.19;104681;1304;24471;-32
2023/03/02 10:19:03;;;;;;;29.40;17.50;;;;;;;10.40;49.57;100112.61;104656;1292;22825;-32
2023/03/02 10:21:40;;;;;;;28.60;15.90;;;;;;;10.39;50.40;100110.33;104488;1298;22626;-36
2023/03/02 10:24:21;;;;;;;22.90;14.80;;;;;;;10.35;50.29;100106.31;104519;1295;22725;-32
2023/03/02 10:26:53;;;;;;;30.90;16.70;;;;;;;10.27;48.79;100108.02;104663;1304;22818;-36
2023/03/02 10:29:33;;;;;;;30.10;15.70;;;;;;;10.59;50.45;100104.73;104893;1292;22553;-36
2023/03/02 10:32:13;;;;;;;21.20;13.40;;;;;;;11.04;51.78;100103.02;104638;1304;22988;-36
2023/03/02 10:34:39;;;;;;;30.70;16.70;;;;;;;11.51;51.73;100098.34;104593;1295;22548;-38
2023/03/02 10:37:10;;;;;;;27.10;15.50;;;;;;;11.75;48.98;100095.60;104723;1295;25361;-32
2023/03/02 10:39:36;;;;;;;27.90;14.90;;;;;;;11.96;49.22;100096.79;104744;1288;22665;-36
2023/03/02 10:42:03;;;;;;;43.00;19.90;;;;;;;12.05;46.42;100094.80;104754;1285;22800;-34
2023/03/02 10:44:36;;;;;;;25.90;15.70;;;;;;;11.86;46.83;100093.16;104818;1292;22648;-33
2023/03/02 10:47:03;;;;;;;26.20;15.50;;;;;;;12.09;46.28;100092.86;104417;1295;22594;-32
2023/03/02 10:49:33;;;;;;;28.60;16.90;;;;;;;11.53;45.01;100087.64;104736;1304;22687;-33
2023/03/02 10:52:05;;;;;;;29.40;17.60;;;;;;;11.69;46.73;100087.05;104812;1292;25356;-36
2023/03/02 10:54:32;;;;;;;42.40;20.80;;;;;;;11.83;46.15;100085.41;104671;1304;22627;-32
2023/03/02 10:57:00;;;;;;;30.70;16.80;;;;;;;12.20;46.13;100088.40;104740;1304;22611;-36
2023/03/02 10:59:42;;;;;;;117.10;57.20;;;;;;;11.61;44.64;100085.75;104762;1284;22792;-36
2023/03/02 11:02:22;;;;;;;37.60;19.00;;;;;;;11.75;44.48;100082.81;104658;1304;22811;-32
2023/03/02 11:45:22;;;;;;;33.70;17.50;;;;;;;12.26;43.84;100036.19;104287;1299;557483;-34
2023/03/02 11:48:12;;;;;;;29.10;16.00;;;;;;;12.06;44.10;100024.82;104148;1304;494830;-34
2023/03/02 11:50:53;;;;;;;31.80;18.70;;;;;;;12.04;44.33;100022.66;104595;1295;22898;-33
2023/03/02 11:53:19;;;;;;;30.50;17.30;;;;;;;12.11;44.01;100022.19;104445;1295;24214;-36
2023/03/02 11:55:47;;;;;;;24.00;14.50;;;;;;;11.81;43.83;100021.63;104442;1286;25667;-36
2023/03/02 11:58:21;;;;;;;26.40;17.30;;;;;;;11.30;44.49;100017.45;104556;1295;24800;-35
2023/03/02 12:00:47;;;;;;;24.50;15.70;;;;;;;10.85;45.85;100011.89;104600;1305;22557;-31
2023/03/02 12:03:22;;;;;;;30.20;17.10;;;;;;;11.12;46.03;100013.65;104455;1295;24376;-32
2023/03/02 12:06:20;;;;;;;29.40;16.40;;;;;;;11.13;45.54;100012.83;104513;1295;23085;-32
2023/03/02 12:08:47;;;;;;;26.70;13.60;;;;;;;11.08;45.82;100004.36;104512;1299;22814;-34
2023/03/02 12:11:32;;;;;;;20.70;13.10;;;;;;;10.80;45.93;100000.15;104508;1295;22661;-34
2023/03/02 12:14:03;;;;;;;29.90;14.40;;;;;;;10.98;46.34;99997.69;104579;1295;24310;-31
2023/03/02 12:16:36;;;;;;;31.20;16.30;;;;;;;10.84;46.27;99995.79;104525;1295;24346;-35
2023/03/02 12:19:06;;;;;;;;;;;;;;;11.17;46.67;99994.52;104480;1301;22660;-35
2023/03/02 12:21:39;;;;;;;26.90;16.00;;;;;;;11.63;45.92;99993.16;104474;1304;24432;-32